Clements, Kansas
Current Conditions -  °F | °C
As of 11:53 PM on Tuesday 21 Oct 2014 (Local Time) from KEMP Reporting Station
Clear Clear  
Wind Chill: 58°   Ceiling: Unl
Heat Index: 58°   Visibility: 10mi
Dew Point: 52°   Wind: 6mph
Humidity: 81%   Direction: 130°SE
Pressure: 30.08"   Gusts: NA
Location:  38.2898°N, 96.7469°W
Report Text: KEMP 220453Z AUTO 13005KT 10SM CLR 14/11 A3008 RMK AO2 SLP180 T01440111
Loading
Personal Weather Stations






























Interactive Weather Map
Tropical Storm Tracking
New forecast layout! Learn more

10-Day Weather Forecast

Advertisements
Track Severe Weather on mobile